Jasper, Arkansas
Current Conditions -  °F | °C
As of 1:53 PM on Wednesday 17 Dec 2014 (Local Time) from KHRO Reporting Station
Light Rain Light Rain  
Wind Chill: 35°   Ceiling: 7500
Heat Index: 35°   Visibility: 8mi
Dew Point: 28°   Wind: 3mph
Humidity: 76%   Direction: 90°E
Pressure: 30.22"   Gusts: NA
Location:  36.01°N, 93.19°W
Report Text: KHRO 171953Z AUTO 09003KT 8SM -RA BKN075 OVC085 02/M02 A3022 RMK AO2 RAB31 SLP244 P0001 T00171022
Loading
Personal Weather Stations






























Interactive Weather Map New forecast layout! Learn more

10-Day Weather Forecast

Advertisements
Track Severe Weather on mobile